Time;durP1;ratioP1;P1;durP2;ratioP2;P2;SDS_P1;SDS_P2;PMS_P1;PMS_P2;Temp;Humidity;BMP_temperature;BMP_pressure;BME280_temperature;BME280_humidity;BME280_pressure;Samples;Min_cycle;Max_cycle;Signal;HPM_P1;HPM_P2
2022/01/20 00:03:29;;;;;;;;;28.33;27.00;;;;;8.07;100.00;102139.78;4873380;29;45384;-86
2022/01/20 00:28:03;;;;;;;;;29.00;27.33;;;;;7.86;100.00;102163.50;4872746;29;45446;-85
2022/01/20 00:33:13;;;;;;;;;30.33;27.00;;;;;7.87;100.00;102154.75;4873720;29;45477;-85
2022/01/20 00:38:24;;;;;;;;;23.33;23.00;;;;;7.82;100.00;102142.19;4873619;29;45431;-85
2022/01/20 00:40:51;;;;;;;;;28.67;26.67;;;;;7.79;100.00;102136.72;4873843;29;45338;-85
2022/01/20 00:43:16;;;;;;;;;26.67;24.33;;;;;7.84;100.00;102146.63;4856161;29;45481;-85
2022/01/20 00:45:42;;;;;;;;;28.33;28.33;;;;;7.79;100.00;102144.69;4872560;29;45465;-85
2022/01/20 00:48:07;;;;;;;;;19.00;14.00;;;;;7.75;100.00;102134.78;4855979;29;47584;-85
2022/01/20 00:50:35;;;;;;;;;27.00;24.33;;;;;7.77;100.00;102153.38;4855603;29;45678;-85
2022/01/20 00:53:01;;;;;;;;;28.00;26.67;;;;;7.72;100.00;102153.19;4855248;29;45379;-84
2022/01/20 00:55:26;;;;;;;;;25.00;23.00;;;;;7.65;100.00;102152.81;4871980;29;45621;-85
2022/01/20 00:57:51;;;;;;;;;27.00;26.00;;;;;7.66;100.00;102147.59;4855106;29;47183;-85
2022/01/20 01:00:17;;;;;;;;;24.67;22.67;;;;;7.63;100.00;102149.19;4855657;29;45526;-85
2022/01/20 01:02:43;;;;;;;;;29.33;24.00;;;;;7.63;100.00;102144.78;4872409;29;45486;-86
2022/01/20 01:05:10;;;;;;;;;28.00;25.00;;;;;7.65;100.00;102159.00;4873877;29;45493;-85
2022/01/20 01:07:50;;;;;;;;;29.67;25.00;;;;;7.57;100.00;102155.06;4857528;29;46826;-85
2022/01/20 01:10:19;;;;;;;;;27.00;25.33;;;;;7.56;100.00;102156.81;4871917;29;45483;-85
2022/01/20 01:12:58;;;;;;;;;28.67;24.00;;;;;7.50;100.00;102153.88;4855929;29;45461;-85
2022/01/20 01:15:30;;;;;;;;;29.67;26.67;;;;;7.56;100.00;102164.75;4872422;29;45456;-86
2022/01/20 01:21:29;;;;;;;;;27.67;25.33;;;;;7.46;100.00;102159.84;4873087;29;45460;-84
2022/01/20 01:23:30;;;;;;;;;23.67;23.00;;;;;7.49;100.00;102183.81;4867345;29;45353;-84
2022/01/20 01:25:56;;;;;;;;;25.67;20.33;;;;;7.35;100.00;102200.75;4872044;29;45558;-85
2022/01/20 01:28:27;;;;;;;;;26.00;25.33;;;;;7.37;100.00;102212.31;4872945;29;47116;-85
2022/01/20 01:33:39;;;;;;;;;16.33;13.67;;;;;7.17;100.00;102201.63;4874168;29;45375;-85
2022/01/20 01:36:07;;;;;;;;;22.67;20.00;;;;;7.23;100.00;102222.22;4857582;29;45342;-85
2022/01/20 01:38:36;;;;;;;;;25.00;23.00;;;;;7.14;100.00;102206.75;4872966;29;47057;-85
2022/01/20 01:41:04;;;;;;;;;22.67;22.67;;;;;7.08;100.00;102209.09;4857608;29;45765;-85
2022/01/20 01:43:32;;;;;;;;;26.33;22.00;;;;;7.09;100.00;102212.63;4859206;29;45389;-85
2022/01/20 01:46:00;;;;;;;;;21.00;21.00;;;;;7.12;100.00;102207.50;4859224;29;45440;-85
2022/01/20 01:48:26;;;;;;;;;23.33;23.33;;;;;7.11;100.00;102210.97;4873771;29;46865;-85
2022/01/20 01:50:51;;;;;;;;;21.67;19.67;;;;;7.10;100.00;102214.47;4856166;29;45468;-85
2022/01/20 01:53:17;;;;;;;;;29.33;24.67;;;;;7.07;100.00;102230.16;4854986;29;45510;-85
2022/01/20 01:55:42;;;;;;;;;26.67;26.67;;;;;7.05;100.00;102242.41;4853805;29;45348;-85
2022/01/20 01:58:08;;;;;;;;;22.33;21.00;;;;;6.99;100.00;102249.19;4855211;29;47758;-85
2022/01/20 02:00:35;;;;;;;;;24.67;21.00;;;;;6.94;100.00;102245.38;4870922;29;45610;-85
2022/01/20 02:03:00;;;;;;;;;22.00;21.33;;;;;6.91;100.00;102254.91;4854450;29;45762;-85
2022/01/20 02:05:27;;;;;;;;;19.67;19.67;;;;;6.90;100.00;102261.91;4872708;29;45724;-85
2022/01/20 02:18:51;;;;;;;;;25.67;22.00;;;;;6.72;100.00;102258.28;4872602;29;45765;-86
2022/01/20 02:21:17;;;;;;;;;22.67;19.33;;;;;6.66;100.00;102256.22;4856152;29;45391;-86
2022/01/20 02:23:43;;;;;;;;;22.00;19.33;;;;;6.66;100.00;102245.66;4856145;29;45771;-85
2022/01/20 02:26:09;;;;;;;;;13.00;12.33;;;;;6.63;100.00;102257.81;4874699;29;45336;-86
2022/01/20 02:28:35;;;;;;;;;20.00;18.67;;;;;6.57;100.00;102261.94;4874026;29;45999;-86
2022/01/20 02:31:01;;;;;;;;;30.00;25.33;;;;;6.54;100.00;102267.03;4855271;29;45312;-86
2022/01/20 02:33:29;;;;;;;;;22.00;17.33;;;;;6.60;100.00;102266.47;4857173;29;45475;-85
2022/01/20 02:36:07;;;;;;;;;21.33;20.67;;;;;6.59;100.00;102267.31;4872014;29;45405;-85
2022/01/20 02:38:48;;;;;;;;;25.67;20.33;;;;;6.54;100.00;102269.66;4854848;29;47570;-86
2022/01/20 02:46:42;;;;;;;;;22.33;20.33;;;;;6.55;100.00;102258.28;4872192;29;45413;-85
2022/01/20 02:49:13;;;;;;;;;20.33;19.33;;;;;6.57;100.00;102247.81;4854307;29;47891;-86
2022/01/20 02:51:49;;;;;;;;;19.00;17.00;;;;;6.58;100.00;102239.03;4854287;29;45765;-85
2022/01/20 02:54:15;;;;;;;;;23.00;19.67;;;;;6.53;100.00;102241.44;4853982;29;45633;-85
2022/01/20 02:56:41;;;;;;;;;19.67;18.67;;;;;6.52;100.00;102238.69;4855991;29;45406;-85
2022/01/20 02:59:07;;;;;;;;;29.00;21.67;;;;;6.50;100.00;102235.97;4854265;29;46922;-85
2022/01/20 03:01:32;;;;;;;;;23.33;19.33;;;;;6.52;100.00;102247.53;4854761;29;45405;-85
2022/01/20 03:04:00;;;;;;;;;17.67;17.67;;;;;6.45;100.00;102237.47;4856183;29;45636;-86
2022/01/20 03:06:25;;;;;;;;;16.00;15.00;;;;;6.44;100.00;102240.91;4856342;29;45663;-85
2022/01/20 03:08:50;;;;;;;;;16.00;12.67;;;;;6.36;100.00;102226.38;4855271;29;47010;-85
2022/01/20 03:11:16;;;;;;;;;20.33;17.67;;;;;6.38;100.00;102241.53;4873440;29;45408;-85
2022/01/20 03:13:41;;;;;;;;;20.33;18.33;;;;;6.29;100.00;102232.16;4854624;29;45462;-85
2022/01/20 03:16:07;;;;;;;;;16.67;16.00;;;;;6.38;100.00;102259.09;4870231;29;45561;-85
2022/01/20 03:18:32;;;;;;;;;15.00;15.00;;;;;6.40;100.00;102271.59;4872290;29;45481;-85
2022/01/20 03:20:58;;;;;;;;;19.33;17.67;;;;;6.36;100.00;102263.38;4855846;29;45556;-85
2022/01/20 03:23:24;;;;;;;;;17.00;15.33;;;;;6.37;100.00;102267.84;4855005;29;45435;-85
2022/01/20 03:25:49;;;;;;;;;18.67;16.00;;;;;6.34;100.00;102275.59;4854549;29;45559;-85
2022/01/20 03:28:15;;;;;;;;;17.00;15.33;;;;;6.36;100.00;102279.22;4872077;29;45996;-86
2022/01/20 03:30:40;;;;;;;;;18.33;18.33;;;;;6.27;100.00;102258.50;4872010;29;44968;-84
2022/01/20 03:33:06;;;;;;;;;17.67;15.33;;;;;6.32;100.00;102264.03;4871697;29;45813;-86
2022/01/20 03:35:31;;;;;;;;;11.33;10.00;;;;;6.37;100.00;102281.06;4854328;29;45378;-85
2022/01/20 03:37:57;;;;;;;;;17.00;16.33;;;;;6.29;100.00;102271.81;4870938;29;46071;-86
2022/01/20 03:40:23;;;;;;;;;15.00;15.00;;;;;6.31;100.00;102276.34;4853184;29;44926;-86
2022/01/20 03:42:50;;;;;;;;;14.67;14.67;;;;;6.21;100.00;102266.97;4869402;29;45439;-85
2022/01/20 03:45:15;;;;;;;;;17.67;16.00;;;;;6.24;100.00;102267.97;4870522;29;45816;-86
2022/01/20 03:47:42;;;;;;;;;14.67;14.67;;;;;6.25;100.00;102264.53;4853939;29;46018;-86
2022/01/20 03:50:59;;;;;;;;;18.00;15.00;;;;;6.27;100.00;102278.72;4869685;29;45374;-86
2022/01/20 03:52:53;;;;;;;;;18.00;15.33;;;;;6.30;100.00;102281.53;4869335;29;45775;-86
2022/01/20 03:55:19;;;;;;;;;17.33;14.33;;;;;6.28;100.00;102291.09;4855553;29;45306;-85
2022/01/20 03:57:44;;;;;;;;;18.33;14.33;;;;;6.29;100.00;102283.28;4870266;29;47037;-85
2022/01/20 04:00:10;;;;;;;;;13.33;11.00;;;;;6.32;100.00;102288.75;4869092;29;45415;-85
2022/01/20 04:02:36;;;;;;;;;16.67;11.67;;;;;6.29;100.00;102292.94;4870547;29;45424;-85
2022/01/20 04:05:01;;;;;;;;;12.00;10.67;;;;;6.26;100.00;102298.03;4852804;29;45348;-86
2022/01/20 04:07:26;;;;;;;;;14.33;11.00;;;;;6.30;100.00;102310.59;4853044;29;48102;-85
2022/01/20 04:09:53;;;;;;;;;12.33;11.00;;;;;6.28;100.00;102293.75;4871042;29;45366;-85
2022/01/20 04:12:18;;;;;;;;;13.00;11.00;;;;;6.20;100.00;102294.25;4853903;29;45570;-85
2022/01/20 04:14:48;;;;;;;;;13.00;10.67;;;;;6.28;100.00;102297.31;4854186;29;45505;-85
2022/01/20 04:17:18;;;;;;;;;10.33;10.33;;;;;6.29;100.00;102304.41;4870621;29;45463;-86
2022/01/20 04:19:45;;;;;;;;;9.33;7.33;;;;;6.29;100.00;102308.78;4856568;29;45481;-86
2022/01/20 04:22:10;;;;;;;;;12.67;10.33;;;;;6.24;100.00;102299.69;4875400;29;45524;-86
2022/01/20 04:24:37;;;;;;;;;9.67;9.67;;;;;6.23;100.00;102311.09;4875061;29;45508;-85
2022/01/20 04:27:09;;;;;;;;;7.00;7.00;;;;;6.12;100.00;102278.75;4857166;29;47828;-86
2022/01/20 04:29:34;;;;;;;;;10.67;10.67;;;;;6.09;100.00;102292.69;4856154;29;45346;-86
2022/01/20 04:32:00;;;;;;;;;10.33;9.33;;;;;6.11;100.00;102304.25;4856355;29;45353;-86
2022/01/20 04:34:25;;;;;;;;;10.33;7.00;;;;;6.15;100.00;102311.53;4874226;29;45511;-85
2022/01/20 04:36:53;;;;;;;;;7.67;7.00;;;;;6.14;100.00;102307.09;4872850;29;45447;-85
2022/01/20 04:39:23;;;;;;;;;10.67;9.67;;;;;6.15;100.00;102303.63;4873749;29;45450;-86
2022/01/20 04:41:50;;;;;;;;;12.00;7.33;;;;;6.15;100.00;102319.47;4857942;29;45434;-85
2022/01/20 04:44:44;;;;;;;;;6.00;5.33;;;;;6.18;100.00;102326.66;4875861;29;45409;-86
2022/01/20 04:47:15;;;;;;;;;8.33;7.33;;;;;6.11;99.99;102320.13;4874195;29;46487;-86
2022/01/20 04:58:47;;;;;;;;;7.00;5.00;;;;;5.95;100.00;102327.97;4852934;29;45685;-85
2022/01/20 05:01:13;;;;;;;;;6.00;5.00;;;;;5.96;100.00;102327.16;4852211;29;45786;-85
2022/01/20 05:03:39;;;;;;;;;9.00;8.33;;;;;6.03;100.00;102329.31;4853099;29;45500;-85
2022/01/20 05:06:05;;;;;;;;;9.00;7.00;;;;;5.95;100.00;102325.34;4839586;29;45415;-86
2022/01/20 05:08:31;;;;;;;;;6.67;6.67;;;;;5.96;100.00;102335.09;4836896;29;47006;-85
2022/01/20 05:11:00;;;;;;;;;5.33;5.33;;;;;5.90;100.00;102318.81;4855380;29;44915;-86
2022/01/20 05:13:33;;;;;;;;;6.67;5.67;;;;;5.89;100.00;102314.38;4854360;29;44870;-86
2022/01/20 05:15:58;;;;;;;;;13.67;7.67;;;;;5.94;100.00;102326.13;4838295;29;44831;-86
2022/01/20 05:18:24;;;;;;;;;5.67;5.67;;;;;5.92;100.00;102314.56;4837934;29;47120;-86
2022/01/20 05:20:49;;;;;;;;;10.50;10.50;;;;;5.99;100.00;102324.69;4838136;29;45918;-86
2022/01/20 05:23:15;;;;;;;;;13.00;9.67;;;;;5.86;100.00;102298.34;4838163;29;45831;-85
2022/01/20 05:25:40;;;;;;;;;8.33;8.33;;;;;5.97;100.00;102327.22;4838763;29;45588;-85
2022/01/20 05:28:06;;;;;;;;;10.00;9.33;;;;;5.87;100.00;102323.94;4854969;29;45536;-85
2022/01/20 05:30:32;;;;;;;;;8.33;8.33;;;;;5.91;100.00;102334.75;4849750;29;45474;-85
2022/01/20 05:32:58;;;;;;;;;11.33;10.33;;;;;5.85;100.00;102315.94;4857967;29;45418;-86
2022/01/20 05:35:23;;;;;;;;;14.00;10.00;;;;;5.83;100.00;102317.56;4857184;29;45362;-86
2022/01/20 05:37:49;;;;;;;;;11.00;9.00;;;;;5.88;100.00;102341.59;4874235;29;45719;-86
2022/01/20 05:40:14;;;;;;;;;9.33;9.33;;;;;5.85;100.00;102346.72;4859277;29;45397;-85
2022/01/20 05:42:40;;;;;;;;;14.33;11.00;;;;;5.79;100.00;102342.88;4859215;29;45307;-85
2022/01/20 05:45:07;;;;;;;;;8.00;7.00;;;;;5.83;100.00;102349.25;4875508;29;44762;-85
2022/01/20 05:47:37;;;;;;;;;13.33;9.67;;;;;5.73;100.00;102339.88;4874990;29;45259;-86
2022/01/20 05:50:03;;;;;;;;;10.00;9.00;;;;;5.78;100.00;102354.25;4858544;29;45401;-86
2022/01/20 05:52:28;;;;;;;;;7.33;7.33;;;;;5.79;100.00;102364.00;4874804;29;44807;-86
2022/01/20 05:54:53;;;;;;;;;12.00;7.00;;;;;5.65;100.00;102343.78;4858763;29;45467;-85
2022/01/20 05:57:19;;;;;;;;;15.00;10.00;;;;;5.57;100.00;102335.41;4875086;29;45411;-86
2022/01/20 05:59:44;;;;;;;;;6.67;6.00;;;;;5.74;100.00;102373.38;4873047;29;45412;-85
2022/01/20 06:02:27;;;;;;;;;9.00;9.00;;;;;5.52;100.00;102336.88;4872618;29;45938;-86
2022/01/20 06:04:52;;;;;;;;;13.67;10.33;;;;;5.58;100.00;102354.81;4872956;29;45459;-86
2022/01/20 06:07:20;;;;;;;;;11.00;11.00;;;;;5.68;100.00;102383.56;4870624;29;46910;-85
2022/01/20 06:09:45;;;;;;;;;14.33;9.67;;;;;5.71;100.00;102375.81;4855214;29;45515;-86
2022/01/20 06:12:11;;;;;;;;;7.00;7.00;;;;;5.63;100.00;102361.25;4871117;29;45685;-86
2022/01/20 06:14:36;;;;;;;;;8.33;8.33;;;;;5.70;100.00;102374.03;4871423;29;45896;-86
2022/01/20 06:17:02;;;;;;;;;11.33;9.33;;;;;5.72;100.00;102369.75;4872232;29;45785;-86
2022/01/20 06:19:27;;;;;;;;;11.33;10.33;;;;;5.63;100.00;102355.97;4854131;29;45533;-86
2022/01/20 06:21:53;;;;;;;;;7.00;7.00;;;;;5.66;100.00;102371.09;4870493;29;45457;-86
2022/01/20 06:24:18;;;;;;;;;10.67;8.33;;;;;5.71;100.00;102380.19;4871215;29;45410;-86
2022/01/20 06:33:28;;;;;;;;;7.67;7.00;;;;;5.68;100.00;102380.94;4871900;29;45505;-86
2022/01/20 06:35:54;;;;;;;;;7.67;6.00;;;;;5.69;100.00;102381.84;4855519;29;45377;-86
2022/01/20 06:38:19;;;;;;;;;9.00;6.67;;;;;5.67;100.00;102381.72;4870580;29;46880;-86
2022/01/20 06:40:45;;;;;;;;;9.00;9.00;;;;;5.59;100.00;102372.44;4855605;29;45384;-86
2022/01/20 06:43:10;;;;;;;;;11.00;6.00;;;;;5.66;100.00;102384.31;4854534;29;45437;-86
2022/01/20 06:45:36;;;;;;;;;6.67;6.67;;;;;5.64;100.00;102389.50;4870737;29;45440;-86
2022/01/20 06:48:01;;;;;;;;;11.33;10.67;;;;;5.66;100.00;102403.69;4853619;29;46539;-86
2022/01/20 06:50:27;;;;;;;;;10.67;7.00;;;;;5.62;100.00;102401.69;4873018;29;45561;-86
2022/01/20 06:52:54;;;;;;;;;6.00;5.33;;;;;5.57;100.00;102409.28;4857480;29;44796;-86
2022/01/20 06:55:20;;;;;;;;;6.00;6.00;;;;;5.56;100.00;102406.59;4873941;29;45411;-86
2022/01/20 06:57:46;;;;;;;;;11.00;9.33;;;;;5.46;100.00;102406.84;4874167;29;45534;-86
2022/01/20 07:00:17;;;;;;;;;8.67;6.33;;;;;5.41;99.64;102418.03;4859109;29;45260;-86
2022/01/20 07:02:46;;;;;;;;;10.00;6.00;;;;;5.39;100.00;102437.19;4858376;29;45475;-86
2022/01/20 07:05:16;;;;;;;;;7.00;7.00;;;;;5.30;100.00;102429.63;4855984;29;45449;-86
2022/01/20 07:07:42;;;;;;;;;6.00;5.00;;;;;5.32;100.00;102438.53;4874345;29;45447;-86
2022/01/20 07:10:10;;;;;;;;;9.67;8.33;;;;;5.32;99.74;102443.81;4856014;29;44819;-86
2022/01/20 07:12:35;;;;;;;;;7.00;5.67;;;;;5.26;100.00;102443.44;4871618;29;45506;-86
2022/01/20 07:15:08;;;;;;;;;6.00;6.00;;;;;5.24;99.48;102449.44;4872768;29;45633;-85
2022/01/20 07:17:33;;;;;;;;;9.67;6.67;;;;;5.15;100.00;102463.88;4858976;29;47040;-85
2022/01/20 07:20:05;;;;;;;;;8.33;7.67;;;;;5.09;99.87;102462.53;4859691;29;45888;-87
2022/01/20 07:22:31;;;;;;;;;13.00;9.00;;;;;5.00;100.00;102445.31;4859487;29;45378;-86
2022/01/20 07:24:56;;;;;;;;;7.00;6.67;;;;;5.03;100.00;102444.63;4859775;29;45444;-85
2022/01/20 07:28:12;;;;;;;;;8.33;8.33;;;;;5.35;100.00;102480.97;4875158;29;46459;-87
2022/01/20 07:30:37;;;;;;;;;9.00;9.00;;;;;5.26;100.00;102476.81;4879359;29;45855;-85
2022/01/20 07:33:05;;;;;;;;;9.00;9.00;;;;;5.19;99.65;102468.53;4879774;29;44759;-85
2022/01/20 07:35:31;;;;;;;;;10.00;9.33;;;;;5.30;99.42;102485.03;4864196;29;45404;-86
2022/01/20 07:37:56;;;;;;;;;5.00;2.67;;;;;5.26;98.22;102483.00;4879652;29;45398;-85
2022/01/20 07:41:12;;;;;;;;;14.33;13.00;;;;;5.36;98.55;102487.16;4879463;29;45390;-86
2022/01/20 07:43:38;;;;;;;;;7.00;5.67;;;;;5.25;99.52;102478.56;4878597;29;45351;-85
2022/01/20 07:46:04;;;;;;;;;11.33;10.67;;;;;5.30;99.45;102471.84;4878188;29;45687;-85
2022/01/20 07:48:30;;;;;;;;;12.00;10.33;;;;;5.36;99.09;102479.22;4877908;29;45294;-85
2022/01/20 07:50:56;;;;;;;;;10.67;10.67;;;;;5.40;99.75;102479.50;4858964;29;45389;-86
2022/01/20 07:53:21;;;;;;;;;11.33;10.00;;;;;5.52;99.73;102487.28;4878642;29;45327;-86
2022/01/20 07:55:47;;;;;;;;;10.67;9.33;;;;;5.56;99.34;102491.03;4882757;29;45702;-86
2022/01/20 07:58:13;;;;;;;;;9.33;7.67;;;;;5.39;99.41;102451.31;4868316;29;47674;-87
2022/01/20 08:00:38;;;;;;;;;7.00;7.00;;;;;5.55;99.97;102478.63;4866611;29;44812;-87
2022/01/20 08:03:04;;;;;;;;;15.33;12.00;;;;;5.46;99.76;102452.59;4886263;29;45431;-86
2022/01/20 08:06:12;;;;;;;;;15.00;9.67;;;;;5.75;99.14;102485.16;4884462;29;45501;-86
2022/01/20 08:08:38;;;;;;;;;18.33;12.67;;;;;5.65;98.12;102477.50;4884114;29;46731;-87
2022/01/20 08:11:03;;;;;;;;;11.67;10.00;;;;;5.41;97.71;102446.13;4867782;29;45366;-86
2022/01/20 08:13:29;;;;;;;;;9.00;9.00;;;;;5.60;99.05;102491.31;4874516;29;45418;-85
2022/01/20 08:15:54;;;;;;;;;9.00;7.00;;;;;5.36;99.74;102439.66;4880480;29;44914;-85
2022/01/20 08:19:16;;;;;;;;;10.67;7.00;;;;;5.78;98.54;102488.00;4881143;29;45403;-86
2022/01/20 08:21:43;;;;;;;;;8.00;8.00;;;;;5.72;98.35;102498.19;4869646;29;45758;-84
2022/01/20 08:24:08;;;;;;;;;7.67;7.00;;;;;5.65;96.93;102499.50;4886449;29;45391;-85
2022/01/20 08:26:36;;;;;;;;;8.33;8.33;;;;;5.57;99.01;102488.47;4879722;29;45299;-85
2022/01/20 08:29:05;;;;;;;;;8.33;8.33;;;;;5.55;97.43;102476.00;4866150;29;46982;-85
2022/01/20 08:31:41;;;;;;;;;8.33;6.00;;;;;5.70;98.72;102491.91;4871597;29;45590;-86
2022/01/20 08:34:07;;;;;;;;;9.33;7.00;;;;;5.45;98.88;102449.84;4865823;29;45709;-86
2022/01/20 08:36:33;;;;;;;;;6.00;6.00;;;;;5.63;97.75;102477.38;4870676;29;44772;-85
2022/01/20 08:38:59;;;;;;;;;10.00;10.00;;;;;5.60;98.51;102471.94;4881598;29;46917;-86
2022/01/20 08:41:24;;;;;;;;;6.00;6.00;;;;;5.72;97.92;102487.63;4858022;29;44999;-85
2022/01/20 08:43:50;;;;;;;;;7.00;6.00;;;;;5.67;98.81;102486.41;4880334;29;44849;-88
2022/01/20 08:46:19;;;;;;;;;10.33;10.00;;;;;5.75;98.74;102499.25;4883141;29;45452;-87
2022/01/20 08:48:46;;;;;;;;;9.33;9.33;;;;;5.62;99.56;102465.03;4876270;29;45398;-86
2022/01/20 08:51:24;;;;;;;;;10.67;10.33;;;;;5.73;99.23;102469.22;4884980;29;45566;-87
2022/01/20 08:53:50;;;;;;;;;10.67;9.33;;;;;5.99;100.00;102499.00;4852904;29;45344;-86
2022/01/20 08:56:24;;;;;;;;;7.00;7.00;;;;;5.91;98.95;102468.53;4868159;29;45345;-86
2022/01/20 08:58:50;;;;;;;;;9.33;9.33;;;;;6.01;98.90;102481.50;4882613;29;47117;-86
2022/01/20 09:01:24;;;;;;;;;10.33;10.00;;;;;6.19;99.04;102503.75;4865784;29;45357;-85
2022/01/20 09:04:08;;;;;;;;;;;;;;;;;;;;;
2022/01/20 09:06:53;;;;;;;;;14.33;10.00;;;;;6.22;99.00;102513.56;4878722;29;65093;-86
2022/01/20 09:09:20;;;;;;;;;12.00;10.33;;;;;5.89;98.57;102451.69;4856451;29;45576;-87
2022/01/20 09:18:16;;;;;;;;;;;;;;;;;;;;;
2022/01/20 09:20:42;;;;;;;;;3.67;2.33;;;;;6.00;95.51;102464.75;4823533;29;74353;-86
2022/01/20 09:23:11;;;;;;;;;10.00;9.67;;;;;6.00;96.21;102471.78;4825396;29;44819;-86
2022/01/20 09:25:49;;;;;;;;;14.00;10.33;;;;;6.03;97.13;102495.72;4850047;29;44898;-86
2022/01/20 09:28:31;;;;;;;;;11.67;11.67;;;;;6.01;97.80;102510.56;4854796;29;45598;-86
2022/01/20 09:31:07;;;;;;;;;12.33;9.67;;;;;6.05;98.50;102498.47;4876043;29;46872;-86
2022/01/20 09:33:46;;;;;;;;;13.00;10.33;;;;;6.42;99.28;102533.28;4847637;29;45717;-86
2022/01/20 09:36:28;;;;;;;;;13.67;13.67;;;;;6.58;98.52;102561.53;4879636;29;44839;-85
2022/01/20 09:39:00;;;;;;;;;11.00;11.00;;;;;6.61;98.26;102557.34;4883683;29;44774;-87
2022/01/20 09:41:26;;;;;;;;;19.67;17.33;;;;;6.52;95.97;102545.31;4881378;29;45571;-86
2022/01/20 09:44:06;;;;;;;;;11.67;11.67;;;;;6.38;97.72;102521.63;4855684;29;44773;-87
2022/01/20 09:46:35;;;;;;;;;13.67;11.00;;;;;6.30;98.00;102503.47;4863784;29;45629;-88
2022/01/20 09:49:11;;;;;;;;;15.00;13.67;;;;;6.40;97.87;102521.69;4881053;29;44804;-87
2022/01/20 09:51:50;;;;;;;;;14.67;14.67;;;;;6.65;97.97;102539.03;4861387;29;46923;-86
2022/01/20 09:57:41;;;;;;;;;15.00;14.67;;;;;6.59;98.85;102508.75;4861680;29;45409;-87
2022/01/20 10:00:15;;;;;;;;;11.67;11.67;;;;;6.53;97.34;102494.28;4865435;29;45335;-87
2022/01/20 10:02:58;;;;;;;;;15.33;13.67;;;;;6.82;98.06;102539.19;4872831;29;46256;-86
2022/01/20 10:05:52;;;;;;;;;15.67;14.33;;;;;6.95;97.06;102546.13;4855132;29;45385;-86
2022/01/20 10:08:31;;;;;;;;;20.67;18.00;;;;;6.76;96.22;102520.31;4848687;29;45273;-86
2022/01/20 10:10:59;;;;;;;;;17.33;14.67;;;;;6.93;98.21;102558.34;4842512;29;45020;-85
2022/01/20 10:13:43;;;;;;;;;21.00;14.00;;;;;6.92;96.69;102559.16;4875643;29;45809;-86
2022/01/20 10:16:35;;;;;;;;;16.00;15.00;;;;;6.55;96.57;102505.84;4888254;29;45152;-85
2022/01/20 10:19:31;;;;;;;;;18.00;17.33;;;;;6.96;98.25;102561.13;4861098;29;45357;-86
2022/01/20 10:22:15;;;;;;;;;17.33;16.67;;;;;6.95;97.81;102554.03;4805821;29;45483;-87
2022/01/20 10:25:08;;;;;;;;;16.33;14.67;;;;;6.89;96.44;102529.88;4806619;29;45385;-86
2022/01/20 10:27:46;;;;;;;;;20.00;20.00;;;;;6.98;98.04;102558.59;4823820;29;44801;-86
2022/01/20 10:30:55;;;;;;;;;;;;;;;;;;;;;
2022/01/20 10:33:58;;;;;;;;;;;;;;;;;;;;;
2022/01/20 10:36:52;;;;;;;;;17.00;17.00;;;;;7.22;98.17;102553.81;4790723;29;74348;-86
2022/01/20 10:39:27;;;;;;;;;15.00;14.67;;;;;7.43;97.91;102579.66;4829522;29;45044;-86
2022/01/20 10:42:04;;;;;;;;;18.67;15.33;;;;;7.54;96.72;102594.41;4824011;29;45056;-86
2022/01/20 10:44:42;;;;;;;;;15.67;14.67;;;;;7.52;97.72;102573.16;4804932;29;45016;-86
2022/01/20 10:47:28;;;;;;;;;20.67;19.67;;;;;7.69;96.38;102584.66;4802058;29;45502;-87
2022/01/20 10:49:54;;;;;;;;;22.67;17.33;;;;;7.67;96.88;102581.03;4821587;29;44765;-87
2022/01/20 10:52:38;;;;;;;;;17.67;15.33;;;;;7.85;95.57;102602.31;4807864;29;45683;-86
2022/01/20 10:55:25;;;;;;;;;15.33;15.33;;;;;7.90;96.55;102597.28;4821797;29;45640;-88
2022/01/20 10:57:53;;;;;;;;;16.00;13.00;;;;;7.87;95.98;102579.47;4798210;29;45499;-88
2022/01/20 11:00:25;;;;;;;;;17.33;14.33;;;;;7.89;97.33;102571.63;4845698;29;44868;-87
2022/01/20 11:03:15;;;;;;;;;16.67;15.33;;;;;8.12;96.87;102584.38;4865801;29;44806;-87
2022/01/20 11:05:48;;;;;;;;;20.00;16.00;;;;;8.09;96.75;102583.28;4857958;29;45032;-87
2022/01/20 11:08:31;;;;;;;;;17.33;15.00;;;;;8.11;96.71;102573.69;4878580;29;45128;-87
2022/01/20 11:11:02;;;;;;;;;20.00;16.67;;;;;7.82;97.43;102534.19;4870619;29;45444;-87
2022/01/20 11:13:35;;;;;;;;;17.33;17.00;;;;;8.04;97.60;102558.28;4864412;29;45170;-85
2022/01/20 11:16:00;;;;;;;;;18.33;17.67;;;;;7.95;95.32;102550.75;4867798;29;44973;-86
2022/01/20 11:18:34;;;;;;;;;15.00;15.00;;;;;8.00;94.89;102573.13;4857616;29;46933;-86
2022/01/20 11:25:18;;;;;;;;;17.00;16.33;;;;;8.12;95.32;102587.03;4850754;29;45636;-87
2022/01/20 11:27:48;;;;;;;;;14.33;14.00;;;;;7.80;96.47;102534.94;4856293;29;45524;-86
2022/01/20 11:30:26;;;;;;;;;13.00;12.00;;;;;8.12;95.95;102576.44;4856699;29;45430;-86
2022/01/20 11:33:34;;;;;;;;;19.33;17.33;;;;;7.97;95.85;102522.59;4858819;29;44956;-87
2022/01/20 11:36:20;;;;;;;;;20.00;17.33;;;;;8.42;97.42;102576.25;4842463;29;44907;-86
2022/01/20 11:38:49;;;;;;;;;21.00;17.67;;;;;8.36;97.25;102538.78;4877600;29;45356;-85
2022/01/20 11:45:31;;;;;;;;;17.33;16.67;;;;;8.75;97.00;102581.50;4842903;29;44896;-85
2022/01/20 11:48:25;;;;;;;;;17.67;17.67;;;;;8.57;95.70;102537.28;4842759;29;45560;-85
2022/01/20 11:51:08;;;;;;;;;15.67;15.67;;;;;8.89;96.71;102575.13;4839601;29;44856;-86
2022/01/20 11:58:07;;;;;;;;;;;;;;;;;;;;;
2022/01/20 12:00:50;;;;;;;;;13.67;12.00;;;;;8.98;95.16;102529.56;4696608;30;67926;-86
2022/01/20 12:03:24;;;;;;;;;8.33;8.33;;;;;9.06;94.42;102538.81;4701757;30;45480;-86
2022/01/20 12:06:22;;;;;;;;;9.33;9.00;;;;;9.13;92.67;102540.94;4727239;30;45107;-86
2022/01/20 12:09:59;;;;;;;;;11.33;9.67;;;;;9.37;94.66;102582.78;4710728;30;45594;-86
2022/01/20 12:23:54;;;;;;;;;8.67;8.67;;;;;9.29;90.86;102566.50;4710416;30;45410;-84
2022/01/20 12:26:21;;;;;;;;;11.00;9.33;;;;;9.38;91.31;102571.34;4725529;30;44894;-86
2022/01/20 12:29:16;;;;;;;;;10.67;8.00;;;;;9.23;92.90;102529.03;4740384;29;45540;-86
2022/01/20 12:32:23;;;;;;;;;;;;;;;;;;;;;
2022/01/20 12:35:20;;;;;;;;;7.00;7.00;;;;;9.55;91.27;102577.44;4820362;29;72043;-85
2022/01/20 12:37:48;;;;;;;;;5.67;4.67;;;;;9.46;91.03;102562.00;4818100;29;45545;-86
2022/01/20 12:40:41;;;;;;;;;;;;;;;;;;;;;
2022/01/20 12:44:05;;;;;;;;;;;;;;;;;;;;;
2022/01/20 12:46:39;;;;;;;;;6.67;6.67;;;;;9.36;90.27;102568.59;4867520;29;44745;-86
2022/01/20 12:49:16;;;;;;;;;7.67;7.33;;;;;9.29;92.83;102557.59;4879924;29;45520;-85
2022/01/20 12:54:52;;;;;;;;;2.67;2.67;;;;;9.21;91.18;102549.28;4871975;29;45539;-85
2022/01/20 12:57:22;;;;;;;;;7.67;6.67;;;;;9.33;91.37;102568.47;4875119;29;45600;-85
2022/01/20 12:59:48;;;;;;;;;4.00;4.00;;;;;9.35;90.60;102556.16;4862348;29;45364;-83
2022/01/20 13:02:33;;;;;;;;;3.00;3.00;;;;;9.50;88.95;102571.91;4880285;29;45292;-85
2022/01/20 13:05:04;;;;;;;;;4.33;3.33;;;;;9.53;87.92;102576.47;4848782;29;45555;-85
2022/01/20 13:11:13;;;;;;;;;2.33;2.33;;;;;9.35;90.01;102508.38;4866879;29;45752;-85
2022/01/20 13:14:12;;;;;;;;;3.33;2.00;;;;;9.43;89.46;102519.34;4872761;29;45640;-85
2022/01/20 13:17:03;;;;;;;;;3.33;3.33;;;;;9.44;89.08;102512.31;4842084;29;45634;-84
2022/01/20 13:19:48;;;;;;;;;2.67;2.67;;;;;9.50;87.85;102507.28;4858971;29;44957;-84
2022/01/20 13:25:41;;;;;;;;;3.00;3.00;;;;;9.37;84.44;102534.97;4780921;29;45378;-84
2022/01/20 13:28:09;;;;;;;;;3.00;3.00;;;;;9.53;84.07;102561.47;4781719;29;46999;-84
2022/01/20 13:30:39;;;;;;;;;3.00;3.00;;;;;9.37;75.26;102551.84;4780751;29;45508;-84
2022/01/20 13:33:27;;;;;;;;;5.33;3.00;;;;;9.25;83.62;102535.31;4781412;29;45628;-84
2022/01/20 13:39:03;;;;;;;;;3.00;3.00;;;;;9.20;83.50;102555.41;4807612;29;47018;-85
2022/01/20 13:41:38;;;;;;;;;6.33;2.67;;;;;8.92;81.40;102506.28;4818069;29;44932;-85
2022/01/20 13:47:10;;;;;;;;;4.00;3.00;;;;;8.69;81.54;102496.28;4817255;29;45040;-85
2022/01/20 13:49:54;;;;;;;;;5.33;2.33;;;;;8.74;83.24;102510.69;4816766;29;47314;-86